createdAt,value
2023-03-27T00:01:32.951Z,101421.66
2023-03-27T00:04:01.013Z,101428.59
2023-03-27T00:06:28.269Z,101423.34
2023-03-27T00:08:58.484Z,101454.97
2023-03-27T00:11:25.910Z,101438.25
2023-03-27T00:13:56.469Z,101453.16
2023-03-27T00:16:29.642Z,101438.56
2023-03-27T00:18:57.227Z,101456.97
2023-03-27T00:21:26.217Z,101446.06
2023-03-27T00:23:54.766Z,101454.22
2023-03-27T00:26:22.361Z,101454.75
2023-03-27T00:28:52.454Z,101474.00
2023-03-27T00:31:23.362Z,101489.66
2023-03-27T00:33:50.807Z,101476.72
2023-03-27T00:36:18.128Z,101487.06
2023-03-27T00:38:45.976Z,101494.88
2023-03-27T00:41:15.696Z,101495.69
2023-03-27T00:43:44.269Z,101497.81
2023-03-27T00:46:28.098Z,101510.50
2023-03-27T00:48:55.990Z,101514.88
2023-03-27T00:51:25.569Z,101525.66
2023-03-27T00:53:53.426Z,101521.81
2023-03-27T00:56:22.048Z,101512.56
2023-03-27T00:58:54.137Z,101511.09
2023-03-27T01:01:26.321Z,101515.56
2023-03-27T01:03:57.402Z,101511.94
2023-03-27T01:06:33.564Z,101515.75
2023-03-27T01:09:05.432Z,101525.13
2023-03-27T01:11:48.859Z,101524.31
2023-03-27T01:14:29.935Z,101494.03
2023-03-27T01:17:30.533Z,101501.91
2023-03-27T01:20:14.699Z,101508.63
2023-03-27T01:23:01.120Z,101503.19
2023-03-27T01:25:31.530Z,101489.38
2023-03-27T01:28:22.345Z,101498.38
2023-03-27T01:30:52.525Z,101499.94
2023-03-27T01:33:54.133Z,101485.44
2023-03-27T01:36:40.055Z,101495.91
2023-03-27T01:39:29.689Z,101480.34
2023-03-27T01:42:29.124Z,101481.91
2023-03-27T01:45:20.055Z,101473.16
2023-03-27T01:48:20.244Z,101485.91
2023-03-27T01:50:59.573Z,101477.06
2023-03-27T01:53:34.492Z,101481.16
2023-03-27T01:56:10.962Z,101462.06
2023-03-27T01:58:48.293Z,101465.22
2023-03-27T02:01:27.545Z,101463.91
2023-03-27T02:03:59.659Z,101459.06
2023-03-27T02:06:34.519Z,101447.06
2023-03-27T02:09:13.199Z,101451.06
2023-03-27T02:11:51.822Z,101450.56
2023-03-27T02:14:26.577Z,101462.44
2023-03-27T02:16:58.670Z,101449.00
2023-03-27T02:19:39.999Z,101465.28
2023-03-27T02:22:08.035Z,101463.75
2023-03-27T02:24:46.840Z,101471.56
2023-03-27T02:27:42.505Z,101476.16
2023-03-27T02:30:31.432Z,101464.66
2023-03-27T02:33:18.237Z,101479.91
2023-03-27T02:36:03.552Z,101485.38
2023-03-27T02:39:02.351Z,101500.19
2023-03-27T02:41:41.653Z,101506.72
2023-03-27T02:44:51.892Z,101526.53
2023-03-27T02:47:49.382Z,101526.63
2023-03-27T02:50:22.100Z,101521.66
2023-03-27T02:52:59.397Z,101527.97
2023-03-27T02:55:33.398Z,101534.00
2023-03-27T02:58:06.490Z,101541.91
2023-03-27T03:00:48.517Z,101524.22
2023-03-27T03:03:37.752Z,101537.34
2023-03-27T03:06:31.232Z,101531.66
2023-03-27T03:09:09.432Z,101543.03
2023-03-27T03:11:46.654Z,101548.34
2023-03-27T03:14:13.992Z,101542.31
2023-03-27T03:16:41.282Z,101536.69
2023-03-27T03:19:13.744Z,101538.47
2023-03-27T03:21:50.417Z,101558.78
2023-03-27T03:24:17.927Z,101551.59
2023-03-27T03:26:45.691Z,101552.28
2023-03-27T03:29:18.535Z,101555.78
2023-03-27T03:32:11.035Z,101555.00
2023-03-27T03:34:42.192Z,101556.25
2023-03-27T03:37:12.529Z,101561.94
2023-03-27T03:39:41.065Z,101566.75
2023-03-27T03:42:22.308Z,101574.97
2023-03-27T03:44:56.719Z,101573.41
2023-03-27T03:47:34.866Z,101572.09
2023-03-27T03:50:05.857Z,101574.72
2023-03-27T03:52:40.430Z,101584.28
2023-03-27T03:55:09.967Z,101579.06
2023-03-27T03:57:37.251Z,101563.50
2023-03-27T04:00:13.039Z,101572.34
2023-03-27T04:02:56.284Z,101572.47
2023-03-27T04:05:24.499Z,101572.53
2023-03-27T04:07:54.105Z,101575.09
2023-03-27T04:10:41.680Z,101572.44
2023-03-27T04:13:24.736Z,101565.34
2023-03-27T04:16:01.932Z,101588.28
2023-03-27T04:18:39.878Z,101580.91
2023-03-27T04:21:18.146Z,101591.59
2023-03-27T04:23:51.662Z,101579.94
2023-03-27T04:26:27.543Z,101583.84
2023-03-27T04:29:14.911Z,101588.16
2023-03-27T04:32:05.036Z,101594.25
2023-03-27T04:34:42.177Z,101595.19
2023-03-27T04:37:23.393Z,101590.84
2023-03-27T04:40:11.821Z,101595.69
2023-03-27T04:42:44.196Z,101584.91
2023-03-27T04:45:20.561Z,101589.50
2023-03-27T04:47:50.349Z,101587.66
2023-03-27T04:50:18.547Z,101587.81
2023-03-27T04:52:49.662Z,101581.38
2023-03-27T04:55:19.852Z,101576.13
2023-03-27T04:57:50.017Z,101584.78
2023-03-27T05:00:19.727Z,101597.69
2023-03-27T05:02:48.374Z,101582.13
2023-03-27T05:05:21.331Z,101589.03
2023-03-27T05:07:50.245Z,101590.81
2023-03-27T05:10:22.191Z,101594.41
2023-03-27T05:12:54.205Z,101588.34
2023-03-27T05:15:23.726Z,101599.03
2023-03-27T05:17:54.693Z,101584.41
2023-03-27T05:20:25.359Z,101588.81
2023-03-27T05:22:56.619Z,101588.06
2023-03-27T05:25:29.448Z,101595.88
2023-03-27T05:28:01.331Z,101596.91
2023-03-27T05:30:41.782Z,101597.31
2023-03-27T05:33:35.566Z,101598.38
2023-03-27T05:36:06.403Z,101608.88
2023-03-27T05:38:46.671Z,101626.75
2023-03-27T05:41:43.642Z,101630.31
2023-03-27T05:44:11.943Z,101633.13
2023-03-27T05:46:45.539Z,101642.28
2023-03-27T05:49:18.104Z,101639.72
2023-03-27T05:51:49.822Z,101644.81
2023-03-27T05:54:20.361Z,101644.03
2023-03-27T05:56:53.453Z,101643.09
2023-03-27T05:59:20.905Z,101650.59
2023-03-27T06:01:54.414Z,101657.97
2023-03-27T06:04:28.972Z,101666.22
2023-03-27T06:07:08.267Z,101670.28
2023-03-27T06:09:42.430Z,101663.19
2023-03-27T06:12:27.995Z,101672.97
2023-03-27T06:15:08.826Z,101681.13
2023-03-27T06:17:54.032Z,101686.31
2023-03-27T06:20:27.909Z,101691.59
2023-03-27T06:23:04.059Z,101689.84
2023-03-27T06:25:44.601Z,101704.72
2023-03-27T06:28:15.096Z,101713.66
2023-03-27T06:30:52.601Z,101718.66
2023-03-27T06:33:45.863Z,101709.22
2023-03-27T06:40:13.180Z,101720.78
2023-03-27T06:43:01.165Z,101714.72
2023-03-27T06:45:43.359Z,101717.03
2023-03-27T06:48:22.769Z,101722.63
2023-03-27T06:51:01.057Z,101725.31
2023-03-27T06:53:38.319Z,101740.28
2023-03-27T06:56:11.913Z,101741.81
2023-03-27T06:59:18.421Z,101763.81
2023-03-27T07:01:49.574Z,101750.81
2023-03-27T07:04:57.712Z,101761.41
2023-03-27T07:07:32.615Z,101758.72
2023-03-27T07:10:02.393Z,101761.53
2023-03-27T07:12:30.654Z,101761.66
2023-03-27T07:15:01.118Z,101759.03
2023-03-27T07:17:48.045Z,101766.88
2023-03-27T07:20:25.644Z,101777.41
2023-03-27T07:23:01.624Z,101773.22
2023-03-27T07:25:53.244Z,101784.56
2023-03-27T07:28:47.582Z,101779.34
2023-03-27T07:31:51.065Z,101777.63
2023-03-27T07:34:19.948Z,101780.38
2023-03-27T07:37:06.016Z,101784.66
2023-03-27T07:39:37.414Z,101789.09
2023-03-27T07:42:05.106Z,101787.84
2023-03-27T07:44:52.661Z,101780.84
2023-03-27T07:47:20.299Z,101781.53
2023-03-27T07:49:48.663Z,101783.00
2023-03-27T07:52:22.350Z,101776.19
2023-03-27T07:55:04.577Z,101783.41
2023-03-27T07:57:59.767Z,101783.75
2023-03-27T08:00:36.557Z,101788.53
2023-03-27T08:03:15.509Z,101793.16
2023-03-27T08:05:57.184Z,101785.66
2023-03-27T08:08:40.391Z,101790.16
2023-03-27T08:11:29.650Z,101805.25
2023-03-27T08:14:26.439Z,101810.66
2023-03-27T08:17:15.661Z,101821.38
2023-03-27T08:19:49.481Z,101826.34
2023-03-27T08:22:19.323Z,101837.16
2023-03-27T08:25:16.457Z,101834.34
2023-03-27T08:27:49.335Z,101841.94
2023-03-27T08:30:24.094Z,101838.88
2023-03-27T08:32:53.623Z,101838.28
2023-03-27T08:35:27.568Z,101832.44
2023-03-27T08:38:05.749Z,101838.28
2023-03-27T08:41:07.131Z,101836.97
2023-03-27T08:43:46.799Z,101837.28
2023-03-27T08:46:39.140Z,101838.44
2023-03-27T08:49:19.654Z,101835.25
2023-03-27T08:52:19.489Z,101839.00
2023-03-27T08:55:08.944Z,101828.59
2023-03-27T08:57:46.838Z,101839.28
2023-03-27T09:00:32.034Z,101838.28
2023-03-27T09:03:34.510Z,101840.19
2023-03-27T09:06:35.869Z,101846.34
2023-03-27T09:09:25.420Z,101858.69
2023-03-27T09:12:12.946Z,101862.22
2023-03-27T09:15:11.237Z,101862.16
2023-03-27T09:18:09.828Z,101859.41
2023-03-27T09:20:59.232Z,101846.22
2023-03-27T09:23:39.710Z,101862.19
2023-03-27T09:26:38.130Z,101872.75
2023-03-27T09:29:31.805Z,101883.31
2023-03-27T09:32:24.734Z,101876.22
2023-03-27T09:34:52.142Z,101885.91
2023-03-27T09:37:19.708Z,101884.00
2023-03-27T09:39:52.603Z,101888.47
2023-03-27T09:42:38.553Z,101894.75
2023-03-27T09:45:08.763Z,101892.03
2023-03-27T09:48:04.318Z,101899.97
2023-03-27T09:50:49.520Z,101909.72
2023-03-27T09:53:28.168Z,101908.88
2023-03-27T09:56:16.571Z,101912.34
2023-03-27T09:58:54.253Z,101910.63
2023-03-27T10:01:29.541Z,101905.31
2023-03-27T10:04:20.903Z,101908.88
2023-03-27T10:07:07.142Z,101913.19
2023-03-27T10:10:12.483Z,101899.00
2023-03-27T10:13:08.953Z,101898.94
2023-03-27T10:15:44.278Z,101891.91
2023-03-27T10:18:29.533Z,101900.81
2023-03-27T10:21:14.442Z,101903.31
2023-03-27T10:23:49.532Z,101914.00
2023-03-27T10:26:45.163Z,101926.31
2023-03-27T10:29:26.808Z,101934.34
2023-03-27T10:32:00.621Z,101930.75
2023-03-27T10:34:55.476Z,101933.34
2023-03-27T10:37:49.921Z,101939.59
2023-03-27T10:40:50.147Z,101938.78
2023-03-27T10:43:46.065Z,101932.66
2023-03-27T10:46:17.359Z,101934.28
2023-03-27T10:48:58.407Z,101936.78
2023-03-27T10:51:51.614Z,101940.31
2023-03-27T10:54:56.385Z,101945.53
2023-03-27T10:57:30.363Z,101946.56
2023-03-27T11:00:20.263Z,101943.09
2023-03-27T11:03:29.050Z,101938.59
2023-03-27T11:06:06.220Z,101947.41
2023-03-27T11:08:44.147Z,101942.94
2023-03-27T11:11:33.274Z,101944.72
2023-03-27T11:14:07.235Z,101936.53
2023-03-27T11:17:05.194Z,101943.03
2023-03-27T11:20:01.172Z,101944.59
2023-03-27T11:23:20.574Z,101951.66
2023-03-27T11:26:13.166Z,101948.81
2023-03-27T11:28:47.545Z,101939.91
2023-03-27T11:31:53.873Z,101944.28
2023-03-27T11:34:54.790Z,101944.25
2023-03-27T11:37:48.755Z,101943.72
2023-03-27T11:40:37.806Z,101941.84
2023-03-27T11:43:15.733Z,101949.78
2023-03-27T11:45:49.645Z,101955.13
2023-03-27T11:48:42.732Z,101957.13
2023-03-27T11:51:18.835Z,101954.84
2023-03-27T11:53:53.660Z,101955.75
2023-03-27T11:56:55.107Z,101955.72
2023-03-27T12:00:14.415Z,101956.59
2023-03-27T12:03:15.978Z,101965.44
2023-03-27T12:06:29.794Z,101967.75
2023-03-27T12:09:30.252Z,101968.88
2023-03-27T12:12:48.929Z,101969.75
2023-03-27T12:16:07.653Z,101973.69
2023-03-27T12:19:29.704Z,101969.00
2023-03-27T12:22:36.038Z,101969.75
2023-03-27T12:25:46.909Z,101974.34
2023-03-27T12:28:47.786Z,101971.63
2023-03-27T12:32:06.373Z,101974.41
2023-03-27T12:35:01.939Z,101971.53
2023-03-27T12:38:22.063Z,101963.94
2023-03-27T12:41:03.992Z,101953.13
2023-03-27T12:43:53.523Z,101967.63
2023-03-27T12:46:37.598Z,101963.06
2023-03-27T12:49:09.607Z,101962.31
2023-03-27T12:52:03.396Z,101966.75
2023-03-27T12:55:28.677Z,101960.78
2023-03-27T12:58:11.382Z,101954.44
2023-03-27T13:01:08.153Z,101950.03
2023-03-27T13:03:50.826Z,101957.13
2023-03-27T13:06:31.309Z,101983.66
2023-03-27T13:09:17.132Z,101969.44
2023-03-27T13:12:36.223Z,101965.09
2023-03-27T13:15:37.501Z,101950.81
2023-03-27T13:18:34.071Z,101957.75
2023-03-27T13:21:29.863Z,101966.00
2023-03-27T13:24:35.242Z,101962.59
2023-03-27T13:27:35.349Z,101969.63
2023-03-27T13:30:17.833Z,101970.50
2023-03-27T13:33:38.264Z,101955.50
2023-03-27T13:36:23.197Z,101949.31
2023-03-27T13:38:53.775Z,101949.38
2023-03-27T13:41:44.589Z,101963.47
2023-03-27T13:44:28.812Z,101959.00
2023-03-27T13:47:31.347Z,101945.84
2023-03-27T13:50:46.363Z,101945.78
2023-03-27T13:53:50.127Z,101945.63
2023-03-27T13:57:15.826Z,101940.34
2023-03-27T14:00:30.662Z,101935.94
2023-03-27T14:03:53.867Z,101959.00
2023-03-27T14:06:45.107Z,101961.72
2023-03-27T14:09:35.845Z,101951.13
2023-03-27T14:13:13.073Z,101950.09
2023-03-27T14:16:21.766Z,101964.03
2023-03-27T14:19:17.541Z,101956.09
2023-03-27T14:22:15.168Z,101957.22
2023-03-27T14:25:11.584Z,101954.56
2023-03-27T14:28:11.326Z,101952.72
2023-03-27T14:30:48.961Z,101955.88
2023-03-27T14:34:04.880Z,101964.66
2023-03-27T14:36:42.676Z,101948.06
2023-03-27T14:39:23.552Z,101943.53
2023-03-27T14:42:19.235Z,101957.13
2023-03-27T14:44:49.254Z,101957.47
2023-03-27T14:47:36.162Z,101946.88
2023-03-27T14:50:13.894Z,101955.81
2023-03-27T14:52:56.488Z,101952.22
2023-03-27T14:55:39.969Z,101950.13
2023-03-27T14:58:40.355Z,101958.16
2023-03-27T15:01:11.794Z,101953.88
2023-03-27T15:03:48.887Z,101961.38
2023-03-27T15:06:27.037Z,101953.78
2023-03-27T15:09:06.666Z,101932.84
2023-03-27T15:11:59.556Z,101941.59
2023-03-27T15:14:32.594Z,101950.88
2023-03-27T15:17:09.482Z,101964.16
2023-03-27T15:19:54.465Z,101961.78
2023-03-27T15:22:36.402Z,101967.50
2023-03-27T15:25:14.586Z,101954.69
2023-03-27T15:27:47.511Z,101950.59
2023-03-27T15:30:32.029Z,101949.88
2023-03-27T15:33:06.587Z,101947.97
2023-03-27T15:35:45.806Z,101938.88
2023-03-27T15:38:15.951Z,101943.34
2023-03-27T15:40:46.888Z,101944.22
2023-03-27T15:43:14.127Z,101942.25
2023-03-27T15:46:05.450Z,101950.84
2023-03-27T15:48:38.587Z,101945.84
2023-03-27T15:51:10.091Z,101949.34
2023-03-27T15:53:47.682Z,101947.78
2023-03-27T15:56:35.113Z,101946.84
2023-03-27T15:59:05.829Z,101956.50
2023-03-27T16:01:33.111Z,101954.28
2023-03-27T16:04:05.227Z,101957.81
2023-03-27T16:06:41.217Z,101951.16
2023-03-27T16:09:40.358Z,101971.47
2023-03-27T16:12:15.903Z,101973.31
2023-03-27T16:14:53.379Z,101966.09
2023-03-27T16:17:34.521Z,101962.31
2023-03-27T16:20:08.744Z,101970.69
2023-03-27T16:22:38.090Z,101963.78
2023-03-27T16:25:15.406Z,101964.56
2023-03-27T16:27:49.373Z,101975.78
2023-03-27T16:30:48.076Z,101986.38
2023-03-27T16:33:25.571Z,101977.81
2023-03-27T16:35:58.981Z,101987.66
2023-03-27T16:38:32.494Z,101985.59
2023-03-27T16:41:03.111Z,101987.16
2023-03-27T16:43:35.638Z,101991.50
2023-03-27T16:46:06.204Z,101991.75
2023-03-27T16:48:38.899Z,101993.81
2023-03-27T16:51:08.661Z,101989.94
2023-03-27T16:53:36.308Z,102003.22
2023-03-27T16:56:03.552Z,101996.31
2023-03-27T16:58:35.062Z,101998.13
2023-03-27T17:01:07.991Z,102003.47
2023-03-27T17:03:37.532Z,102003.47
2023-03-27T17:06:10.623Z,101998.00
2023-03-27T17:08:38.223Z,102005.41
2023-03-27T17:11:11.194Z,102008.22
2023-03-27T17:13:43.057Z,102010.41
2023-03-27T17:16:11.437Z,102008.94
2023-03-27T17:18:38.949Z,102013.03
2023-03-27T17:21:06.917Z,102023.97
2023-03-27T17:23:34.910Z,102023.97
2023-03-27T17:26:03.532Z,102026.56
2023-03-27T17:28:34.118Z,102026.81
2023-03-27T17:31:05.120Z,102008.47
2023-03-27T17:33:37.643Z,102013.56
2023-03-27T17:36:12.053Z,102024.22
2023-03-27T17:38:40.791Z,102045.97
2023-03-27T17:41:10.302Z,102049.31
2023-03-27T17:43:40.677Z,102049.91
2023-03-27T17:46:08.577Z,102053.47
2023-03-27T17:48:46.250Z,102055.50
2023-03-27T17:51:14.012Z,102057.47
2023-03-27T17:53:41.623Z,102064.25
2023-03-27T17:56:10.295Z,102065.97
2023-03-27T17:58:39.095Z,102070.69
2023-03-27T18:01:20.059Z,102082.16
2023-03-27T18:03:50.148Z,102081.00
2023-03-27T18:06:19.297Z,102083.72
2023-03-27T18:08:50.296Z,102090.59
2023-03-27T18:11:17.718Z,102095.97
2023-03-27T18:13:51.460Z,102093.03
2023-03-27T18:16:19.921Z,102096.41
2023-03-27T18:18:52.621Z,102100.13
2023-03-27T18:21:20.674Z,102106.44
2023-03-27T18:23:48.070Z,102103.66
2023-03-27T18:26:25.824Z,102103.91
2023-03-27T18:28:55.304Z,102117.53
2023-03-27T18:31:26.424Z,102121.38
2023-03-27T18:33:55.575Z,102126.88
2023-03-27T18:36:26.545Z,102140.41
2023-03-27T18:38:54.256Z,102130.84
2023-03-27T18:41:21.712Z,102128.22
2023-03-27T18:43:59.321Z,102140.25
2023-03-27T18:46:27.007Z,102139.81
2023-03-27T18:48:55.649Z,102155.38
2023-03-27T18:51:27.904Z,102149.13
2023-03-27T18:53:55.138Z,102154.25
2023-03-27T18:56:22.546Z,102158.44
2023-03-27T18:58:52.917Z,102164.47
2023-03-27T19:01:20.228Z,102168.47
2023-03-27T19:03:48.791Z,102171.25
2023-03-27T19:06:22.828Z,102160.41
2023-03-27T19:08:51.905Z,102169.41
2023-03-27T19:11:27.164Z,102166.38
2023-03-27T19:14:16.310Z,102182.19
2023-03-27T19:17:04.143Z,102178.13
2023-03-27T19:19:50.232Z,102172.50
2023-03-27T19:22:49.138Z,102172.75
2023-03-27T19:25:36.329Z,102182.50
2023-03-27T19:28:05.516Z,102192.38
2023-03-27T19:30:41.449Z,102193.41
2023-03-27T19:33:11.781Z,102203.50
2023-03-27T19:35:39.139Z,102202.28
2023-03-27T19:38:11.252Z,102206.84
2023-03-27T19:40:38.607Z,102201.38
2023-03-27T19:43:06.765Z,102204.97
2023-03-27T19:45:36.836Z,102215.69
2023-03-27T19:48:04.893Z,102212.38
2023-03-27T19:50:33.158Z,102220.66
2023-03-27T19:53:10.804Z,102203.81
2023-03-27T19:55:42.648Z,102206.88
2023-03-27T19:58:10.372Z,102219.50
2023-03-27T20:00:47.875Z,102223.13
2023-03-27T20:03:17.095Z,102215.84
2023-03-27T20:05:50.749Z,102226.44
2023-03-27T20:08:19.615Z,102220.75
2023-03-27T20:10:49.434Z,102221.78
2023-03-27T20:13:22.309Z,102223.44
2023-03-27T20:15:56.334Z,102221.38
2023-03-27T20:18:23.824Z,102222.59
2023-03-27T20:20:55.138Z,102221.28
2023-03-27T20:23:32.790Z,102219.97
2023-03-27T20:26:01.487Z,102222.31
2023-03-27T20:28:28.754Z,102227.41
2023-03-27T20:30:56.227Z,102231.75
2023-03-27T20:33:25.887Z,102237.44
2023-03-27T20:35:57.150Z,102234.00
2023-03-27T20:38:35.168Z,102240.97
2023-03-27T20:41:08.955Z,102246.03
2023-03-27T20:43:36.186Z,102242.03
2023-03-27T20:46:05.192Z,102255.03
2023-03-27T20:48:41.840Z,102257.28
2023-03-27T20:51:14.963Z,102263.66
2023-03-27T20:53:54.775Z,102256.59
2023-03-27T20:56:25.864Z,102266.31
2023-03-27T20:58:53.048Z,102268.09
2023-03-27T21:01:20.345Z,102277.19
2023-03-27T21:03:50.110Z,102279.75
2023-03-27T21:06:24.006Z,102286.41
2023-03-27T21:08:51.969Z,102287.50
2023-03-27T21:11:19.730Z,102290.44
2023-03-27T21:13:47.119Z,102289.50
2023-03-27T21:16:14.213Z,102280.97
2023-03-27T21:18:41.563Z,102294.25
2023-03-27T21:21:08.796Z,102296.97
2023-03-27T21:23:42.657Z,102300.56
2023-03-27T21:26:15.868Z,102294.44
2023-03-27T21:28:43.458Z,102300.91
2023-03-27T21:31:11.513Z,102299.97
2023-03-27T21:33:39.364Z,102300.72
2023-03-27T21:36:07.006Z,102296.78
2023-03-27T21:38:34.272Z,102302.41
2023-03-27T21:41:05.802Z,102303.38
2023-03-27T21:43:32.973Z,102302.66
2023-03-27T21:46:03.881Z,102298.69
2023-03-27T21:48:31.452Z,102301.34
2023-03-27T21:51:01.203Z,102304.38
2023-03-27T21:53:28.543Z,102307.69
2023-03-27T21:55:56.825Z,102299.75
2023-03-27T21:58:24.987Z,102297.06
2023-03-27T22:00:52.239Z,102303.38
2023-03-27T22:03:19.555Z,102308.63
2023-03-27T22:05:57.396Z,102315.81
2023-03-27T22:08:34.156Z,102320.09
2023-03-27T22:11:01.524Z,102324.91
2023-03-27T22:13:29.028Z,102322.53
2023-03-27T22:15:57.305Z,102319.09
2023-03-27T22:18:25.057Z,102322.47
2023-03-27T22:20:52.160Z,102318.09
2023-03-27T22:23:22.315Z,102330.78
2023-03-27T22:25:54.824Z,102320.84
2023-03-27T22:28:22.003Z,102323.94
2023-03-27T22:30:49.213Z,102329.06
2023-03-27T22:33:16.401Z,102324.78
2023-03-27T22:35:50.477Z,102335.38
2023-03-27T22:38:17.626Z,102337.50
2023-03-27T22:40:44.712Z,102336.59
2023-03-27T22:43:11.884Z,102336.03
2023-03-27T22:45:50.396Z,102339.31
2023-03-27T22:48:17.764Z,102341.06
2023-03-27T22:50:46.094Z,102346.66
2023-03-27T22:53:13.241Z,102339.69
2023-03-27T22:55:40.537Z,102348.41
2023-03-27T22:58:07.648Z,102346.03
2023-03-27T23:00:35.010Z,102340.31
2023-03-27T23:03:02.397Z,102348.13
2023-03-27T23:05:29.663Z,102351.66
2023-03-27T23:07:56.682Z,102353.59
2023-03-27T23:10:23.887Z,102355.91
2023-03-27T23:12:51.422Z,102354.13
2023-03-27T23:15:30.330Z,102360.25
2023-03-27T23:17:57.849Z,102354.81
2023-03-27T23:20:25.150Z,102358.69
2023-03-27T23:22:52.253Z,102354.63
2023-03-27T23:25:19.632Z,102365.63
2023-03-27T23:27:47.153Z,102366.34
2023-03-27T23:30:14.557Z,102362.19
2023-03-27T23:32:41.883Z,102368.41
2023-03-27T23:35:12.444Z,102366.66
2023-03-27T23:37:39.739Z,102369.31
2023-03-27T23:40:07.757Z,102376.53
2023-03-27T23:42:35.111Z,102375.00
2023-03-27T23:45:02.451Z,102368.25
2023-03-27T23:47:29.644Z,102376.53
2023-03-27T23:49:56.813Z,102381.81
2023-03-27T23:52:23.998Z,102379.16
2023-03-27T23:54:51.146Z,102380.59
2023-03-27T23:57:18.954Z,102379.59
2023-03-27T23:59:51.551Z,102376.41
